sensor_id;sensor_type;location;lat;lon;timestamp;P1;durP1;ratioP1;P2;durP2;ratioP2
21334;SDS011;69435;52.670;13.544;2023-06-26T00:00:28;12.60;;;9.20;;
21334;SDS011;69435;52.670;13.544;2023-06-26T00:02:55;8.97;;;8.13;;
21334;SDS011;69435;52.670;13.544;2023-06-26T00:05:20;10.10;;;9.20;;
21334;SDS011;69435;52.670;13.544;2023-06-26T00:07:46;9.83;;;8.90;;
21334;SDS011;69435;52.670;13.544;2023-06-26T00:10:15;10.53;;;9.53;;
21334;SDS011;69435;52.670;13.544;2023-06-26T00:12:41;10.23;;;9.20;;
21334;SDS011;69435;52.670;13.544;2023-06-26T00:15:07;9.80;;;8.80;;
21334;SDS011;69435;52.670;13.544;2023-06-26T00:17:33;9.07;;;8.30;;
21334;SDS011;69435;52.670;13.544;2023-06-26T00:20:02;10.07;;;9.07;;
21334;SDS011;69435;52.670;13.544;2023-06-26T00:22:30;10.63;;;8.90;;
21334;SDS011;69435;52.670;13.544;2023-06-26T00:24:56;9.87;;;8.77;;
21334;SDS011;69435;52.670;13.544;2023-06-26T00:27:21;10.00;;;9.07;;
21334;SDS011;69435;52.670;13.544;2023-06-26T00:29:48;9.20;;;8.47;;
21334;SDS011;69435;52.670;13.544;2023-06-26T00:32:14;9.47;;;8.47;;
21334;SDS011;69435;52.670;13.544;2023-06-26T00:34:39;9.60;;;8.43;;
21334;SDS011;69435;52.670;13.544;2023-06-26T00:37:05;9.93;;;9.03;;
21334;SDS011;69435;52.670;13.544;2023-06-26T00:39:31;10.47;;;9.07;;
21334;SDS011;69435;52.670;13.544;2023-06-26T00:41:57;9.77;;;8.87;;
21334;SDS011;69435;52.670;13.544;2023-06-26T00:44:22;9.90;;;9.00;;
21334;SDS011;69435;52.670;13.544;2023-06-26T00:46:49;11.00;;;9.70;;
21334;SDS011;69435;52.670;13.544;2023-06-26T00:49:15;11.00;;;10.03;;
21334;SDS011;69435;52.670;13.544;2023-06-26T00:51:41;10.43;;;9.53;;
21334;SDS011;69435;52.670;13.544;2023-06-26T00:54:08;14.03;;;9.27;;
21334;SDS011;69435;52.670;13.544;2023-06-26T00:56:34;9.17;;;8.37;;
21334;SDS011;69435;52.670;13.544;2023-06-26T00:59:00;9.63;;;8.83;;
21334;SDS011;69435;52.670;13.544;2023-06-26T01:01:28;9.73;;;8.83;;
21334;SDS011;69435;52.670;13.544;2023-06-26T01:03:53;9.60;;;8.80;;
21334;SDS011;69435;52.670;13.544;2023-06-26T01:06:20;10.40;;;8.90;;
21334;SDS011;69435;52.670;13.544;2023-06-26T01:08:48;9.50;;;8.57;;
21334;SDS011;69435;52.670;13.544;2023-06-26T01:11:16;10.70;;;9.70;;
21334;SDS011;69435;52.670;13.544;2023-06-26T01:13:43;8.70;;;8.07;;
21334;SDS011;69435;52.670;13.544;2023-06-26T01:16:12;9.23;;;8.30;;
21334;SDS011;69435;52.670;13.544;2023-06-26T01:18:40;9.70;;;8.67;;
21334;SDS011;69435;52.670;13.544;2023-06-26T01:21:08;10.63;;;9.60;;
21334;SDS011;69435;52.670;13.544;2023-06-26T01:26:22;10.17;;;9.37;;
21334;SDS011;69435;52.670;13.544;2023-06-26T01:28:52;10.40;;;9.40;;
21334;SDS011;69435;52.670;13.544;2023-06-26T01:31:21;9.87;;;8.97;;
21334;SDS011;69435;52.670;13.544;2023-06-26T01:33:49;10.30;;;9.40;;
21334;SDS011;69435;52.670;13.544;2023-06-26T01:36:15;9.50;;;8.80;;
21334;SDS011;69435;52.670;13.544;2023-06-26T01:38:41;10.03;;;9.23;;
21334;SDS011;69435;52.670;13.544;2023-06-26T01:41:07;9.40;;;8.70;;
21334;SDS011;69435;52.670;13.544;2023-06-26T01:46:06;10.60;;;9.53;;
21334;SDS011;69435;52.670;13.544;2023-06-26T01:49:06;10.83;;;8.93;;
21334;SDS011;69435;52.670;13.544;2023-06-26T01:58:01;10.13;;;9.23;;
21334;SDS011;69435;52.670;13.544;2023-06-26T02:00:28;10.07;;;9.17;;
21334;SDS011;69435;52.670;13.544;2023-06-26T02:02:54;10.80;;;9.67;;
21334;SDS011;69435;52.670;13.544;2023-06-26T02:05:22;9.87;;;9.07;;
21334;SDS011;69435;52.670;13.544;2023-06-26T02:07:49;9.67;;;8.90;;
21334;SDS011;69435;52.670;13.544;2023-06-26T02:10:16;10.03;;;9.23;;
21334;SDS011;69435;52.670;13.544;2023-06-26T02:12:42;11.07;;;9.60;;
21334;SDS011;69435;52.670;13.544;2023-06-26T02:15:08;11.17;;;10.07;;
21334;SDS011;69435;52.670;13.544;2023-06-26T02:17:34;10.53;;;9.43;;
21334;SDS011;69435;52.670;13.544;2023-06-26T02:20:00;11.30;;;10.30;;
21334;SDS011;69435;52.670;13.544;2023-06-26T02:22:26;11.50;;;10.40;;
21334;SDS011;69435;52.670;13.544;2023-06-26T02:24:53;11.33;;;10.23;;
21334;SDS011;69435;52.670;13.544;2023-06-26T02:27:19;11.43;;;10.10;;
21334;SDS011;69435;52.670;13.544;2023-06-26T02:29:46;12.70;;;10.37;;
21334;SDS011;69435;52.670;13.544;2023-06-26T02:32:12;12.00;;;10.67;;
21334;SDS011;69435;52.670;13.544;2023-06-26T02:34:38;11.43;;;10.33;;
21334;SDS011;69435;52.670;13.544;2023-06-26T02:37:04;12.07;;;10.90;;
21334;SDS011;69435;52.670;13.544;2023-06-26T02:39:32;11.93;;;10.93;;
21334;SDS011;69435;52.670;13.544;2023-06-26T02:41:59;11.43;;;10.43;;
21334;SDS011;69435;52.670;13.544;2023-06-26T02:44:25;14.43;;;10.67;;
21334;SDS011;69435;52.670;13.544;2023-06-26T02:46:51;11.77;;;10.77;;
21334;SDS011;69435;52.670;13.544;2023-06-26T02:49:17;12.50;;;9.93;;
21334;SDS011;69435;52.670;13.544;2023-06-26T02:51:43;12.10;;;10.73;;
21334;SDS011;69435;52.670;13.544;2023-06-26T02:54:09;16.13;;;11.70;;
21334;SDS011;69435;52.670;13.544;2023-06-26T02:56:35;12.50;;;11.07;;
21334;SDS011;69435;52.670;13.544;2023-06-26T02:59:00;12.70;;;11.60;;
21334;SDS011;69435;52.670;13.544;2023-06-26T03:01:26;13.17;;;11.93;;
21334;SDS011;69435;52.670;13.544;2023-06-26T03:03:52;12.17;;;11.17;;
21334;SDS011;69435;52.670;13.544;2023-06-26T03:06:17;12.67;;;11.37;;
21334;SDS011;69435;52.670;13.544;2023-06-26T03:08:44;13.20;;;11.70;;
21334;SDS011;69435;52.670;13.544;2023-06-26T03:11:09;12.27;;;11.17;;
21334;SDS011;69435;52.670;13.544;2023-06-26T03:13:36;12.50;;;11.40;;
21334;SDS011;69435;52.670;13.544;2023-06-26T03:16:03;12.37;;;11.20;;
21334;SDS011;69435;52.670;13.544;2023-06-26T03:18:29;14.07;;;11.30;;
21334;SDS011;69435;52.670;13.544;2023-06-26T03:20:55;12.27;;;11.17;;
21334;SDS011;69435;52.670;13.544;2023-06-26T03:23:22;11.83;;;10.73;;
21334;SDS011;69435;52.670;13.544;2023-06-26T03:25:49;12.33;;;11.33;;
21334;SDS011;69435;52.670;13.544;2023-06-26T03:28:15;12.17;;;11.00;;
21334;SDS011;69435;52.670;13.544;2023-06-26T03:30:41;11.73;;;10.53;;
21334;SDS011;69435;52.670;13.544;2023-06-26T03:33:07;13.30;;;12.00;;
21334;SDS011;69435;52.670;13.544;2023-06-26T03:35:33;11.60;;;10.43;;
21334;SDS011;69435;52.670;13.544;2023-06-26T03:37:59;16.63;;;11.13;;
21334;SDS011;69435;52.670;13.544;2023-06-26T03:40:26;13.07;;;10.97;;
21334;SDS011;69435;52.670;13.544;2023-06-26T03:42:52;12.33;;;10.50;;
21334;SDS011;69435;52.670;13.544;2023-06-26T03:45:18;11.63;;;10.60;;
21334;SDS011;69435;52.670;13.544;2023-06-26T03:47:45;11.73;;;10.63;;
21334;SDS011;69435;52.670;13.544;2023-06-26T03:50:14;13.67;;;12.27;;
21334;SDS011;69435;52.670;13.544;2023-06-26T03:52:41;13.33;;;12.13;;
21334;SDS011;69435;52.670;13.544;2023-06-26T03:55:06;13.23;;;12.00;;
21334;SDS011;69435;52.670;13.544;2023-06-26T03:57:33;12.33;;;11.00;;
21334;SDS011;69435;52.670;13.544;2023-06-26T03:59:59;14.10;;;12.73;;
21334;SDS011;69435;52.670;13.544;2023-06-26T04:02:24;15.33;;;12.73;;
21334;SDS011;69435;52.670;13.544;2023-06-26T04:04:50;13.27;;;12.17;;
21334;SDS011;69435;52.670;13.544;2023-06-26T04:07:17;16.60;;;13.33;;
21334;SDS011;69435;52.670;13.544;2023-06-26T04:09:46;13.10;;;11.90;;
21334;SDS011;69435;52.670;13.544;2023-06-26T04:12:12;14.60;;;12.77;;
21334;SDS011;69435;52.670;13.544;2023-06-26T04:14:47;15.80;;;13.17;;
21334;SDS011;69435;52.670;13.544;2023-06-26T04:17:13;13.67;;;12.47;;
21334;SDS011;69435;52.670;13.544;2023-06-26T04:19:39;14.97;;;13.57;;
21334;SDS011;69435;52.670;13.544;2023-06-26T04:22:04;16.70;;;14.80;;
21334;SDS011;69435;52.670;13.544;2023-06-26T04:24:30;15.20;;;13.63;;
21334;SDS011;69435;52.670;13.544;2023-06-26T04:26:56;16.63;;;14.50;;
21334;SDS011;69435;52.670;13.544;2023-06-26T04:29:22;16.50;;;15.00;;
21334;SDS011;69435;52.670;13.544;2023-06-26T04:31:54;16.13;;;14.53;;
21334;SDS011;69435;52.670;13.544;2023-06-26T04:34:26;18.33;;;14.57;;
21334;SDS011;69435;52.670;13.544;2023-06-26T04:36:53;15.10;;;13.53;;
21334;SDS011;69435;52.670;13.544;2023-06-26T04:39:19;13.80;;;12.50;;
21334;SDS011;69435;52.670;13.544;2023-06-26T04:41:45;14.77;;;13.40;;
21334;SDS011;69435;52.670;13.544;2023-06-26T04:44:11;15.07;;;13.57;;
21334;SDS011;69435;52.670;13.544;2023-06-26T04:46:38;16.50;;;14.27;;
21334;SDS011;69435;52.670;13.544;2023-06-26T04:49:09;16.60;;;14.13;;
21334;SDS011;69435;52.670;13.544;2023-06-26T04:51:36;14.87;;;13.47;;
21334;SDS011;69435;52.670;13.544;2023-06-26T04:54:09;15.33;;;13.77;;
21334;SDS011;69435;52.670;13.544;2023-06-26T04:56:36;14.77;;;13.33;;
21334;SDS011;69435;52.670;13.544;2023-06-26T04:59:04;14.93;;;13.43;;
21334;SDS011;69435;52.670;13.544;2023-06-26T05:01:30;14.17;;;12.70;;
21334;SDS011;69435;52.670;13.544;2023-06-26T05:03:57;13.97;;;12.50;;
21334;SDS011;69435;52.670;13.544;2023-06-26T05:06:31;15.13;;;13.73;;
21334;SDS011;69435;52.670;13.544;2023-06-26T05:08:57;14.23;;;12.83;;
21334;SDS011;69435;52.670;13.544;2023-06-26T05:11:23;15.17;;;13.37;;
21334;SDS011;69435;52.670;13.544;2023-06-26T05:13:50;13.70;;;12.50;;
21334;SDS011;69435;52.670;13.544;2023-06-26T05:16:16;13.73;;;12.43;;
21334;SDS011;69435;52.670;13.544;2023-06-26T05:18:42;14.43;;;12.93;;
21334;SDS011;69435;52.670;13.544;2023-06-26T05:21:08;14.57;;;13.07;;
21334;SDS011;69435;52.670;13.544;2023-06-26T05:23:34;13.67;;;12.27;;
21334;SDS011;69435;52.670;13.544;2023-06-26T05:26:06;13.07;;;11.97;;
21334;SDS011;69435;52.670;13.544;2023-06-26T05:28:32;12.40;;;11.33;;
21334;SDS011;69435;52.670;13.544;2023-06-26T05:31:03;13.03;;;11.80;;
21334;SDS011;69435;52.670;13.544;2023-06-26T05:33:30;12.00;;;11.00;;
21334;SDS011;69435;52.670;13.544;2023-06-26T05:36:00;11.67;;;10.47;;
21334;SDS011;69435;52.670;13.544;2023-06-26T05:38:31;12.47;;;11.20;;
21334;SDS011;69435;52.670;13.544;2023-06-26T05:40:57;11.30;;;10.30;;
21334;SDS011;69435;52.670;13.544;2023-06-26T05:43:23;10.83;;;10.03;;
21334;SDS011;69435;52.670;13.544;2023-06-26T05:45:51;11.13;;;10.13;;
21334;SDS011;69435;52.670;13.544;2023-06-26T05:48:17;11.17;;;10.23;;
21334;SDS011;69435;52.670;13.544;2023-06-26T05:50:43;10.60;;;9.77;;
21334;SDS011;69435;52.670;13.544;2023-06-26T05:53:16;9.83;;;8.83;;
21334;SDS011;69435;52.670;13.544;2023-06-26T05:55:42;10.30;;;9.27;;
21334;SDS011;69435;52.670;13.544;2023-06-26T05:58:09;9.37;;;8.57;;
21334;SDS011;69435;52.670;13.544;2023-06-26T06:00:38;16.70;;;9.67;;
21334;SDS011;69435;52.670;13.544;2023-06-26T06:03:05;10.43;;;9.53;;
21334;SDS011;69435;52.670;13.544;2023-06-26T06:05:31;10.13;;;9.27;;
21334;SDS011;69435;52.670;13.544;2023-06-26T06:07:57;12.50;;;9.40;;
21334;SDS011;69435;52.670;13.544;2023-06-26T06:10:22;9.47;;;8.40;;
21334;SDS011;69435;52.670;13.544;2023-06-26T06:12:48;11.18;;;10.00;;
21334;SDS011;69435;52.670;13.544;2023-06-26T06:15:14;16.80;;;8.57;;
21334;SDS011;69435;52.670;13.544;2023-06-26T06:17:40;9.68;;;8.50;;
21334;SDS011;69435;52.670;13.544;2023-06-26T06:20:05;9.95;;;9.05;;
21334;SDS011;69435;52.670;13.544;2023-06-26T06:22:34;9.63;;;8.82;;
21334;SDS011;69435;52.670;13.544;2023-06-26T06:25:00;9.35;;;8.65;;
21334;SDS011;69435;52.670;13.544;2023-06-26T06:27:26;9.82;;;8.80;;
21334;SDS011;69435;52.670;13.544;2023-06-26T06:29:52;9.88;;;8.82;;
21334;SDS011;69435;52.670;13.544;2023-06-26T06:32:18;10.68;;;9.52;;
21334;SDS011;69435;52.670;13.544;2023-06-26T06:34:44;10.02;;;9.05;;
21334;SDS011;69435;52.670;13.544;2023-06-26T06:37:09;10.35;;;9.20;;
21334;SDS011;69435;52.670;13.544;2023-06-26T06:39:35;11.60;;;9.07;;
21334;SDS011;69435;52.670;13.544;2023-06-26T06:42:01;10.23;;;9.00;;
21334;SDS011;69435;52.670;13.544;2023-06-26T06:44:27;9.63;;;8.80;;
21334;SDS011;69435;52.670;13.544;2023-06-26T06:46:52;11.27;;;8.48;;
21334;SDS011;69435;52.670;13.544;2023-06-26T06:49:18;9.05;;;8.35;;
21334;SDS011;69435;52.670;13.544;2023-06-26T06:51:44;10.52;;;9.55;;
21334;SDS011;69435;52.670;13.544;2023-06-26T06:54:10;10.30;;;9.05;;
21334;SDS011;69435;52.670;13.544;2023-06-26T06:56:35;9.57;;;8.77;;
21334;SDS011;69435;52.670;13.544;2023-06-26T06:59:01;10.80;;;9.80;;
21334;SDS011;69435;52.670;13.544;2023-06-26T07:01:27;9.07;;;8.43;;
21334;SDS011;69435;52.670;13.544;2023-06-26T07:03:54;8.70;;;7.93;;
21334;SDS011;69435;52.670;13.544;2023-06-26T07:06:20;9.05;;;8.18;;
21334;SDS011;69435;52.670;13.544;2023-06-26T07:08:46;7.55;;;6.95;;
21334;SDS011;69435;52.670;13.544;2023-06-26T07:11:12;7.80;;;7.10;;
21334;SDS011;69435;52.670;13.544;2023-06-26T07:13:38;8.13;;;7.47;;
21334;SDS011;69435;52.670;13.544;2023-06-26T07:16:03;6.88;;;6.38;;
21334;SDS011;69435;52.670;13.544;2023-06-26T07:18:29;6.68;;;6.07;;
21334;SDS011;69435;52.670;13.544;2023-06-26T07:20:56;7.15;;;6.55;;
21334;SDS011;69435;52.670;13.544;2023-06-26T07:23:22;6.07;;;5.68;;
21334;SDS011;69435;52.670;13.544;2023-06-26T07:25:48;9.90;;;5.60;;
21334;SDS011;69435;52.670;13.544;2023-06-26T07:28:14;5.93;;;5.32;;
21334;SDS011;69435;52.670;13.544;2023-06-26T07:30:40;5.85;;;5.45;;
21334;SDS011;69435;52.670;13.544;2023-06-26T07:33:06;8.43;;;6.22;;
21334;SDS011;69435;52.670;13.544;2023-06-26T07:35:33;8.25;;;6.03;;
21334;SDS011;69435;52.670;13.544;2023-06-26T07:37:59;6.05;;;5.65;;
21334;SDS011;69435;52.670;13.544;2023-06-26T07:40:25;5.57;;;5.18;;
21334;SDS011;69435;52.670;13.544;2023-06-26T07:42:52;5.70;;;5.30;;
21334;SDS011;69435;52.670;13.544;2023-06-26T07:45:19;6.25;;;5.85;;
21334;SDS011;69435;52.670;13.544;2023-06-26T07:47:45;6.13;;;5.72;;
21334;SDS011;69435;52.670;13.544;2023-06-26T07:50:11;6.72;;;6.18;;
21334;SDS011;69435;52.670;13.544;2023-06-26T07:52:37;6.40;;;5.55;;
21334;SDS011;69435;52.670;13.544;2023-06-26T07:55:02;6.50;;;5.93;;
21334;SDS011;69435;52.670;13.544;2023-06-26T07:57:29;6.50;;;6.10;;
21334;SDS011;69435;52.670;13.544;2023-06-26T07:59:55;6.22;;;5.82;;
21334;SDS011;69435;52.670;13.544;2023-06-26T08:02:24;6.50;;;5.90;;
21334;SDS011;69435;52.670;13.544;2023-06-26T08:04:49;6.03;;;5.53;;
21334;SDS011;69435;52.670;13.544;2023-06-26T08:07:15;6.95;;;6.03;;
21334;SDS011;69435;52.670;13.544;2023-06-26T08:09:41;6.97;;;6.43;;
21334;SDS011;69435;52.670;13.544;2023-06-26T08:12:07;8.90;;;6.05;;
21334;SDS011;69435;52.670;13.544;2023-06-26T08:14:32;6.05;;;5.55;;
21334;SDS011;69435;52.670;13.544;2023-06-26T08:16:59;6.38;;;5.97;;
21334;SDS011;69435;52.670;13.544;2023-06-26T08:19:24;6.28;;;5.78;;
21334;SDS011;69435;52.670;13.544;2023-06-26T08:21:50;6.10;;;5.70;;
21334;SDS011;69435;52.670;13.544;2023-06-26T08:24:16;9.10;;;6.43;;
21334;SDS011;69435;52.670;13.544;2023-06-26T08:26:44;6.15;;;5.63;;
21334;SDS011;69435;52.670;13.544;2023-06-26T08:29:11;6.70;;;6.20;;
21334;SDS011;69435;52.670;13.544;2023-06-26T08:31:42;8.85;;;5.70;;
21334;SDS011;69435;52.670;13.544;2023-06-26T08:34:08;6.43;;;5.88;;
21334;SDS011;69435;52.670;13.544;2023-06-26T08:36:37;6.00;;;5.53;;
21334;SDS011;69435;52.670;13.544;2023-06-26T08:39:03;5.80;;;5.30;;
21334;SDS011;69435;52.670;13.544;2023-06-26T08:41:30;5.53;;;5.22;;
21334;SDS011;69435;52.670;13.544;2023-06-26T08:43:56;6.00;;;5.60;;
21334;SDS011;69435;52.670;13.544;2023-06-26T08:46:22;7.85;;;5.35;;
21334;SDS011;69435;52.670;13.544;2023-06-26T08:48:49;5.68;;;5.22;;
21334;SDS011;69435;52.670;13.544;2023-06-26T08:51:21;5.72;;;5.22;;
21334;SDS011;69435;52.670;13.544;2023-06-26T08:56:26;6.68;;;5.32;;
21334;SDS011;69435;52.670;13.544;2023-06-26T08:58:59;8.00;;;5.72;;
21334;SDS011;69435;52.670;13.544;2023-06-26T09:01:26;4.78;;;4.47;;
21334;SDS011;69435;52.670;13.544;2023-06-26T09:03:53;6.70;;;5.05;;
21334;SDS011;69435;52.670;13.544;2023-06-26T09:06:19;8.00;;;5.35;;
21334;SDS011;69435;52.670;13.544;2023-06-26T09:08:47;6.72;;;5.25;;
21334;SDS011;69435;52.670;13.544;2023-06-26T09:11:13;5.25;;;4.65;;
21334;SDS011;69435;52.670;13.544;2023-06-26T09:13:39;7.15;;;4.95;;
21334;SDS011;69435;52.670;13.544;2023-06-26T09:16:08;5.78;;;5.28;;
21334;SDS011;69435;52.670;13.544;2023-06-26T09:18:34;5.45;;;5.00;;
21334;SDS011;69435;52.670;13.544;2023-06-26T09:21:05;4.95;;;4.50;;
21334;SDS011;69435;52.670;13.544;2023-06-26T09:23:34;5.93;;;4.55;;
21334;SDS011;69435;52.670;13.544;2023-06-26T09:26:04;6.18;;;4.05;;
21334;SDS011;69435;52.670;13.544;2023-06-26T09:28:34;5.25;;;4.90;;
21334;SDS011;69435;52.670;13.544;2023-06-26T09:31:01;4.85;;;4.65;;
21334;SDS011;69435;52.670;13.544;2023-06-26T09:33:33;4.45;;;4.25;;
21334;SDS011;69435;52.670;13.544;2023-06-26T09:36:01;4.55;;;4.25;;
21334;SDS011;69435;52.670;13.544;2023-06-26T09:38:43;5.05;;;4.75;;
21334;SDS011;69435;52.670;13.544;2023-06-26T09:41:08;5.32;;;4.95;;
21334;SDS011;69435;52.670;13.544;2023-06-26T09:43:50;5.10;;;4.70;;
21334;SDS011;69435;52.670;13.544;2023-06-26T09:46:26;5.25;;;4.50;;
21334;SDS011;69435;52.670;13.544;2023-06-26T09:49:09;5.50;;;4.75;;
21334;SDS011;69435;52.670;13.544;2023-06-26T09:51:37;4.50;;;4.20;;
21334;SDS011;69435;52.670;13.544;2023-06-26T09:54:06;5.78;;;4.55;;
21334;SDS011;69435;52.670;13.544;2023-06-26T09:56:37;4.88;;;4.57;;
21334;SDS011;69435;52.670;13.544;2023-06-26T09:59:03;4.97;;;4.57;;
21334;SDS011;69435;52.670;13.544;2023-06-26T10:01:31;5.47;;;5.05;;
21334;SDS011;69435;52.670;13.544;2023-06-26T10:03:58;5.93;;;4.43;;
21334;SDS011;69435;52.670;13.544;2023-06-26T10:06:25;4.78;;;4.38;;
21334;SDS011;69435;52.670;13.544;2023-06-26T10:09:06;5.30;;;4.80;;
21334;SDS011;69435;52.670;13.544;2023-06-26T10:12:19;5.03;;;4.47;;
21334;SDS011;69435;52.670;13.544;2023-06-26T10:14:33;5.07;;;4.72;;
21334;SDS011;69435;52.670;13.544;2023-06-26T10:17:03;5.22;;;4.72;;
21334;SDS011;69435;52.670;13.544;2023-06-26T10:19:34;4.70;;;4.40;;
21334;SDS011;69435;52.670;13.544;2023-06-26T10:22:04;5.15;;;4.40;;
21334;SDS011;69435;52.670;13.544;2023-06-26T10:24:31;4.68;;;4.47;;
21334;SDS011;69435;52.670;13.544;2023-06-26T10:27:07;4.85;;;4.55;;
21334;SDS011;69435;52.670;13.544;2023-06-26T10:30:02;4.95;;;4.63;;
21334;SDS011;69435;52.670;13.544;2023-06-26T10:32:31;4.70;;;4.40;;
21334;SDS011;69435;52.670;13.544;2023-06-26T10:34:58;4.53;;;4.22;;
21334;SDS011;69435;52.670;13.544;2023-06-26T10:37:44;4.45;;;4.20;;
21334;SDS011;69435;52.670;13.544;2023-06-26T10:40:20;4.65;;;4.35;;
21334;SDS011;69435;52.670;13.544;2023-06-26T10:42:50;5.03;;;4.72;;
21334;SDS011;69435;52.670;13.544;2023-06-26T10:45:17;5.18;;;4.78;;
21334;SDS011;69435;52.670;13.544;2023-06-26T10:47:46;4.68;;;4.38;;
21334;SDS011;69435;52.670;13.544;2023-06-26T10:50:17;4.50;;;4.20;;
21334;SDS011;69435;52.670;13.544;2023-06-26T10:53:15;4.50;;;4.10;;
21334;SDS011;69435;52.670;13.544;2023-06-26T11:03:39;5.95;;;4.22;;
21334;SDS011;69435;52.670;13.544;2023-06-26T11:06:11;4.72;;;4.43;;
21334;SDS011;69435;52.670;13.544;2023-06-26T11:11:19;5.93;;;4.78;;
21334;SDS011;69435;52.670;13.544;2023-06-26T11:13:47;5.45;;;5.00;;
21334;SDS011;69435;52.670;13.544;2023-06-26T11:16:13;4.90;;;4.32;;
21334;SDS011;69435;52.670;13.544;2023-06-26T11:18:41;5.25;;;4.95;;
21334;SDS011;69435;52.670;13.544;2023-06-26T11:21:09;5.13;;;4.72;;
21334;SDS011;69435;52.670;13.544;2023-06-26T11:23:45;5.20;;;4.90;;
21334;SDS011;69435;52.670;13.544;2023-06-26T11:26:17;5.15;;;4.75;;
21334;SDS011;69435;52.670;13.544;2023-06-26T11:28:54;5.07;;;4.78;;
21334;SDS011;69435;52.670;13.544;2023-06-26T11:34:04;4.85;;;4.55;;
21334;SDS011;69435;52.670;13.544;2023-06-26T11:36:34;4.60;;;4.40;;
21334;SDS011;69435;52.670;13.544;2023-06-26T11:39:06;5.82;;;4.78;;
21334;SDS011;69435;52.670;13.544;2023-06-26T11:41:35;7.28;;;5.13;;
21334;SDS011;69435;52.670;13.544;2023-06-26T11:44:03;5.38;;;5.07;;
21334;SDS011;69435;52.670;13.544;2023-06-26T11:46:32;5.20;;;4.80;;
21334;SDS011;69435;52.670;13.544;2023-06-26T11:48:59;4.82;;;4.53;;
21334;SDS011;69435;52.670;13.544;2023-06-26T11:51:28;4.90;;;4.60;;
21334;SDS011;69435;52.670;13.544;2023-06-26T11:53:54;5.30;;;4.72;;
21334;SDS011;69435;52.670;13.544;2023-06-26T11:56:21;5.43;;;4.95;;
21334;SDS011;69435;52.670;13.544;2023-06-26T12:01:32;5.05;;;4.68;;
21334;SDS011;69435;52.670;13.544;2023-06-26T12:04:01;4.60;;;4.30;;
21334;SDS011;69435;52.670;13.544;2023-06-26T12:06:33;5.22;;;4.82;;
21334;SDS011;69435;52.670;13.544;2023-06-26T12:09:01;5.15;;;4.75;;
21334;SDS011;69435;52.670;13.544;2023-06-26T12:11:30;4.88;;;4.57;;
21334;SDS011;69435;52.670;13.544;2023-06-26T12:13:58;5.18;;;4.82;;
21334;SDS011;69435;52.670;13.544;2023-06-26T12:16:25;5.95;;;5.45;;
21334;SDS011;69435;52.670;13.544;2023-06-26T12:19:04;5.50;;;5.00;;
21334;SDS011;69435;52.670;13.544;2023-06-26T12:23:59;5.38;;;4.97;;
21334;SDS011;69435;52.670;13.544;2023-06-26T12:26:26;5.32;;;4.72;;
21334;SDS011;69435;52.670;13.544;2023-06-26T12:29:04;5.38;;;4.90;;
21334;SDS011;69435;52.670;13.544;2023-06-26T12:31:32;5.03;;;4.72;;
21334;SDS011;69435;52.670;13.544;2023-06-26T12:34:00;5.75;;;5.22;;
21334;SDS011;69435;52.670;13.544;2023-06-26T12:36:27;5.72;;;5.32;;
21334;SDS011;69435;52.670;13.544;2023-06-26T12:38:53;5.05;;;4.68;;
21334;SDS011;69435;52.670;13.544;2023-06-26T12:41:19;5.90;;;5.30;;
21334;SDS011;69435;52.670;13.544;2023-06-26T12:43:49;5.55;;;5.18;;
21334;SDS011;69435;52.670;13.544;2023-06-26T12:46:20;5.57;;;5.28;;
21334;SDS011;69435;52.670;13.544;2023-06-26T12:49:01;5.65;;;5.30;;
21334;SDS011;69435;52.670;13.544;2023-06-26T12:51:28;5.35;;;5.05;;
21334;SDS011;69435;52.670;13.544;2023-06-26T12:53:53;5.07;;;4.65;;
21334;SDS011;69435;52.670;13.544;2023-06-26T12:56:19;10.98;;;5.18;;
21334;SDS011;69435;52.670;13.544;2023-06-26T12:58:45;6.07;;;5.50;;
21334;SDS011;69435;52.670;13.544;2023-06-26T13:01:11;5.80;;;5.30;;
21334;SDS011;69435;52.670;13.544;2023-06-26T13:03:38;5.30;;;5.00;;
21334;SDS011;69435;52.670;13.544;2023-06-26T13:06:05;6.65;;;5.75;;
21334;SDS011;69435;52.670;13.544;2023-06-26T13:08:31;5.28;;;4.95;;
21334;SDS011;69435;52.670;13.544;2023-06-26T13:10:57;5.50;;;5.00;;
21334;SDS011;69435;52.670;13.544;2023-06-26T13:13:23;5.82;;;5.43;;
21334;SDS011;69435;52.670;13.544;2023-06-26T13:15:48;5.20;;;4.90;;
21334;SDS011;69435;52.670;13.544;2023-06-26T13:18:14;5.55;;;5.25;;
21334;SDS011;69435;52.670;13.544;2023-06-26T13:20:40;5.25;;;4.85;;
21334;SDS011;69435;52.670;13.544;2023-06-26T13:23:06;5.22;;;4.72;;
21334;SDS011;69435;52.670;13.544;2023-06-26T13:25:32;8.95;;;5.43;;
21334;SDS011;69435;52.670;13.544;2023-06-26T13:27:58;5.82;;;5.32;;
21334;SDS011;69435;52.670;13.544;2023-06-26T13:30:24;6.20;;;5.68;;
21334;SDS011;69435;52.670;13.544;2023-06-26T13:32:50;5.80;;;5.30;;
21334;SDS011;69435;52.670;13.544;2023-06-26T13:35:15;5.85;;;5.28;;
21334;SDS011;69435;52.670;13.544;2023-06-26T13:37:41;5.65;;;5.25;;
21334;SDS011;69435;52.670;13.544;2023-06-26T13:40:08;5.47;;;5.07;;
21334;SDS011;69435;52.670;13.544;2023-06-26T13:42:34;6.20;;;5.70;;
21334;SDS011;69435;52.670;13.544;2023-06-26T13:45:02;5.47;;;5.18;;
21334;SDS011;69435;52.670;13.544;2023-06-26T13:47:29;5.93;;;5.60;;
21334;SDS011;69435;52.670;13.544;2023-06-26T13:49:55;9.25;;;5.43;;
21334;SDS011;69435;52.670;13.544;2023-06-26T13:52:21;6.05;;;5.45;;
21334;SDS011;69435;52.670;13.544;2023-06-26T13:54:47;6.05;;;5.32;;
21334;SDS011;69435;52.670;13.544;2023-06-26T13:57:13;6.55;;;5.22;;
21334;SDS011;69435;52.670;13.544;2023-06-26T13:59:39;5.93;;;5.47;;
21334;SDS011;69435;52.670;13.544;2023-06-26T14:02:05;5.45;;;5.10;;
21334;SDS011;69435;52.670;13.544;2023-06-26T14:04:32;5.88;;;5.47;;
21334;SDS011;69435;52.670;13.544;2023-06-26T14:07:02;5.80;;;5.40;;
21334;SDS011;69435;52.670;13.544;2023-06-26T14:09:28;6.70;;;5.90;;
21334;SDS011;69435;52.670;13.544;2023-06-26T14:11:54;6.72;;;6.07;;
21334;SDS011;69435;52.670;13.544;2023-06-26T14:14:20;6.55;;;6.05;;
21334;SDS011;69435;52.670;13.544;2023-06-26T14:16:46;9.25;;;5.95;;
21334;SDS011;69435;52.670;13.544;2023-06-26T14:19:17;6.03;;;5.57;;
21334;SDS011;69435;52.670;13.544;2023-06-26T14:21:45;9.10;;;6.15;;
21334;SDS011;69435;52.670;13.544;2023-06-26T14:24:11;8.98;;;6.28;;
21334;SDS011;69435;52.670;13.544;2023-06-26T14:26:37;7.20;;;5.88;;
21334;SDS011;69435;52.670;13.544;2023-06-26T14:29:03;9.45;;;5.95;;
21334;SDS011;69435;52.670;13.544;2023-06-26T14:31:29;6.20;;;5.70;;
21334;SDS011;69435;52.670;13.544;2023-06-26T14:33:56;8.60;;;5.85;;
21334;SDS011;69435;52.670;13.544;2023-06-26T14:36:21;8.13;;;7.30;;
21334;SDS011;69435;52.670;13.544;2023-06-26T14:38:47;10.98;;;7.03;;
21334;SDS011;69435;52.670;13.544;2023-06-26T14:41:13;13.43;;;7.25;;
21334;SDS011;69435;52.670;13.544;2023-06-26T14:43:38;7.85;;;7.22;;
21334;SDS011;69435;52.670;13.544;2023-06-26T14:46:05;8.40;;;7.72;;
21334;SDS011;69435;52.670;13.544;2023-06-26T14:48:31;8.43;;;7.60;;
21334;SDS011;69435;52.670;13.544;2023-06-26T14:50:56;8.35;;;7.60;;
21334;SDS011;69435;52.670;13.544;2023-06-26T14:53:22;8.23;;;7.63;;
21334;SDS011;69435;52.670;13.544;2023-06-26T14:55:48;8.35;;;7.55;;
21334;SDS011;69435;52.670;13.544;2023-06-26T14:58:13;8.87;;;8.17;;
21334;SDS011;69435;52.670;13.544;2023-06-26T15:00:39;9.63;;;8.83;;